Latest Weather Observations for Charleville

IDQ60801

Issued at 4:02 pm EST Wednesday 19 June 2019 (issued every 10 minutes, with the page automatically refreshed every 10 minutes)

About weather observations | Map of weather stations | Latest weather observations for QLD | Other Formats
Station Details ID: 044021 Name: CHARLEVILLE AERO Lat: -26.41 Lon: 146.26 Height: 301.6 m
Data from the previous 72 hours. | See also: Recent months at Charleville
Date/Time
EST
Temp
°C
App
Temp
°C
Dew
Point
°C
Rel
Hum
%
Delta-T
°C
Wind Press
QNH
hPa
Press
MSL
hPa
Rain since
9am
mm
Dir  Spd
km/h
Gust
km/h
Spd
kts
Gust
kts
19/04:00pm 17.5 12.5 -1.2 28 8.0 S 15 22 8 12 1020.7 1020.6 0.0
19/03:30pm 17.7 12.3 -1.0 28 8.1 SSE 17 28 9 15 1020.5 1020.4 0.0
19/03:00pm 17.7 12.0 -0.5 29 7.9 SSE 19 30 10 16 1020.5 1020.4 0.0
19/02:30pm 17.6 12.7 -0.6 29 7.9 S 15 28 8 15 1020.6 1020.5 0.0
19/02:00pm 17.9 13.0 -0.4 29 8.0 ESE 15 24 8 13 1021.0 1021.0 0.0
19/01:30pm 17.5 12.3 -0.2 30 7.7 SSE 17 28 9 15 1021.5 1021.4 0.0
19/01:00pm 16.9 11.2 -0.8 30 7.6 SSE 19 30 10 16 1021.8 1021.7 0.0
19/12:30pm 16.9 12.1 0.1 32 7.4 SE 15 26 8 14 1022.3 1022.2 0.0
19/12:00pm 17.0 11.8 0.2 32 7.3 SSE 17 26 9 14 1022.9 1022.8 0.0
19/11:30am 16.2 10.1 0.3 34 6.9 SSE 22 35 12 19 1023.4 1023.3 0.0
19/11:00am 15.7 10.6 0.7 36 6.6 SSE 17 28 9 15 1023.7 1023.7 0.0
19/10:30am 14.6 10.3 1.2 40 5.9 SSE 13 19 7 10 1024.0 1024.0 0.0
19/10:00am 13.4 9.5 1.1 43 5.3 SSE 11 15 6 8 1024.2 1024.2 0.0
19/09:30am 12.1 7.4 0.8 46 4.8 SSE 15 17 8 9 1024.1 1024.1 0.0
19/09:00am 10.6 6.6 0.6 50 4.2 SSE 11 19 6 10 1023.9 1023.9 0.0
19/08:30am 7.5 5.6 0.3 60 2.9 CALM 0 0 0 0 1023.6 1023.6 0.0
19/08:00am 4.1 2.0 -0.7 71 1.8 CALM 0 0 0 0 1023.3 1023.2 0.0
19/07:30am 1.7 -0.9 -1.4 80 1.1 WSW 2 11 1 6 1022.9 1022.8 0.0
19/07:00am 0.8 -2.6 -2.1 81 1.1 N 6 7 3 4 1022.4 1022.3 0.0
19/06:30am 1.1 -1.1 -1.8 81 1.0 CALM 0 0 0 0 1022.2 1022.1 0.0
19/06:00am 1.0 -1.2 -1.9 81 1.1 CALM 0 0 0 0 1022.0 1021.9 0.0
19/05:30am 1.3 -0.9 -1.8 80 1.1 CALM 0 0 0 0 1022.0 1021.9 0.0
19/05:00am 1.5 -0.7 -1.7 79 1.1 CALM 0 0 0 0 1021.8 1021.7 0.0
19/04:30am 1.9 -0.3 -1.3 79 1.2 CALM 0 0 0 0 1022.1 1022.0 0.0
19/04:00am 2.0 -0.2 -1.2 79 1.2 CALM 0 0 0 0 1021.9 1021.8 0.0
19/03:30am 2.3 0.1 -1.3 77 1.3 CALM 0 0 0 0 1022.0 1021.9 0.0
19/03:00am 2.7 0.5 -1.3 75 1.5 CALM 0 0 0 0 1022.1 1022.0 0.0
19/02:30am 3.3 1.2 -0.9 74 1.6 CALM 0 0 0 0 1022.3 1022.2 0.0
19/02:00am 3.8 1.7 -0.8 72 1.7 CALM 0 0 0 0 1022.1 1022.0 0.0
19/01:30am 4.1 2.0 -0.5 72 1.7 CALM 0 0 0 0 1021.9 1021.8 0.0
19/01:00am 4.7 2.6 -0.7 68 2.0 CALM 0 0 0 0 1021.5 1021.4 0.0
19/12:30am 5.4 2.6 -0.4 66 2.2 ESE 4 7 2 4 1021.7 1021.6 0.0
19/12:00am 6.0 2.8 -0.7 62 2.6 SE 6 7 3 4 1021.9 1021.8 0.0
 
Date/Time
EST
Temp
°C
App
Temp
°C
Dew
Point
°C
Rel
Hum
%
Delta-T
°C
Wind Press
QNH
hPa
Press
MSL
hPa
Rain since
9am
mm
Dir  Spd
km/h
Gust
km/h
Spd
kts
Gust
kts
18/11:30pm 7.2 3.9 -1.0 56 3.2 SSE 6 7 3 4 1021.9 1021.8 0.0
18/11:00pm 9.0 5.3 -0.1 53 3.7 SSE 9 11 5 6 1022.1 1022.0 0.0
18/10:30pm 9.4 5.7 -0.2 51 3.9 SSE 9 11 5 6 1022.2 1022.1 0.0
18/10:00pm 9.7 5.9 -0.5 49 4.1 SSE 9 11 5 6 1022.4 1022.3 0.0
18/09:30pm 10.5 6.7 -0.9 45 4.6 SSE 9 11 5 6 1022.6 1022.5 0.0
18/09:00pm 11.5 7.0 -0.3 44 4.8 SSE 13 15 7 8 1022.4 1022.3 0.0
18/08:30pm 9.0 5.2 -1.1 49 4.0 S 9 11 5 6 1022.3 1022.2 0.0
18/08:00pm 9.3 5.8 -1.1 48 4.1 SSE 7 9 4 5 1022.0 1021.9 0.0
18/07:30pm 10.0 6.6 -1.7 44 4.6 S 6 7 3 4 1021.8 1021.7 0.0
18/07:00pm 11.3 7.8 -1.5 41 5.1 SSW 7 9 4 5 1021.2 1021.2 0.0
18/06:30pm 12.9 8.5 -2.2 35 6.1 SSW 11 13 6 7 1020.8 1020.8 0.0
18/06:00pm 14.6 10.6 -1.9 32 6.8 SSW 9 11 5 6 1020.6 1020.5 0.0
18/05:30pm 16.0 11.3 -2.0 29 7.5 SW 13 15 7 8 1020.4 1020.3 0.0
18/05:00pm 17.4 11.9 -1.8 27 8.1 SW 17 26 9 14 1020.0 1019.9 0.0
18/04:30pm 17.8 13.2 -1.4 27 8.2 SW 13 19 7 10 1019.6 1019.5 0.0
18/04:00pm 18.4 13.4 -1.4 26 8.5 SSW 15 28 8 15 1019.5 1019.4 0.0
18/03:30pm 18.1 12.7 -1.2 27 8.3 SSW 17 28 9 15 1019.4 1019.3 0.0
18/03:00pm 18.5 13.6 -0.3 28 8.3 S 15 22 8 12 1019.5 1019.4 0.0
18/02:30pm 18.2 13.3 -0.6 28 8.2 SSW 15 26 8 14 1019.8 1019.7 0.0
18/02:00pm 18.3 13.4 -0.5 28 8.2 SW 15 26 8 14 1020.0 1019.9 0.0
18/01:30pm 17.9 12.6 -0.8 28 8.1 S 17 33 9 18 1020.4 1020.3 0.0
18/01:00pm 17.6 13.1 -0.6 29 7.9 SSW 13 22 7 12 1020.8 1020.8 0.0
18/12:30pm 17.5 12.6 -0.7 29 7.9 SW 15 20 8 11 1021.2 1021.2 0.0
18/12:00pm 17.2 12.4 0.4 32 7.4 S 15 26 8 14 1021.7 1021.6 0.0
18/11:30am 16.6 11.8 0.3 33 7.1 SSE 15 26 8 14 1022.4 1022.3 0.0
18/11:00am 16.3 12.4 1.2 36 6.7 SSE 11 17 6 9 1022.6 1022.5 0.0
18/10:30am 15.3 12.6 2.5 42 5.8 SSE 6 11 3 6 1022.9 1022.8 0.0
18/10:00am 14.3 11.7 3.2 47 5.1 SSE 6 7 3 4 1023.2 1023.1 0.0
18/09:30am 12.0 9.3 2.5 52 4.2 S 6 9 3 5 1023.2 1023.1 0.0
18/09:00am 9.9 7.8 2.0 58 3.4 SSE 2 6 1 3 1023.0 1022.9 0.0
18/08:30am 7.6 5.9 1.9 67 2.4 CALM 0 0 0 0 1022.8 1022.7 0.0
18/08:00am 5.0 3.2 0.9 75 1.6 CALM 0 0 0 0 1022.8 1022.7 0.0
18/07:30am 2.5 0.5 -0.4 81 1.1 CALM 0 4 0 2 1022.6 1022.5 0.0
18/07:00am 1.4 -0.7 -0.8 85 0.8 CALM 0 2 0 1 1022.3 1022.2 0.0
18/06:30am 1.7 -0.4 -0.5 85 0.8 CALM 0 0 0 0 1022.0 1021.9 0.0
18/06:00am 1.8 -0.3 -0.6 84 0.9 CALM 0 0 0 0 1021.6 1021.5 0.0
18/05:30am 2.0 0.0 -0.2 85 0.8 CALM 0 0 0 0 1021.3 1021.3 0.0
18/05:00am 2.1 0.0 -0.5 83 1.0 CALM 0 0 0 0 1021.1 1021.1 0.0
18/04:30am 2.7 -0.1 -0.1 82 1.1 N 4 6 2 3 1021.1 1021.1 0.0
18/04:00am 2.9 0.9 0.0 81 1.1 CALM 0 0 0 0 1020.7 1020.6 0.0
18/03:30am 3.1 1.1 0.2 81 1.1 CALM 0 0 0 0 1020.8 1020.8 0.0
18/03:00am 3.3 1.3 0.2 80 1.2 CALM 0 0 0 0 1020.8 1020.8 0.0
18/02:30am 3.6 1.7 0.3 79 1.3 CALM 0 0 0 0 1021.0 1021.0 0.0
18/02:00am 4.1 2.2 0.4 77 1.4 CALM 0 0 0 0 1021.2 1021.2 0.0
18/01:30am 4.7 2.9 1.0 77 1.5 CALM 0 0 0 0 1021.3 1021.3 0.0
18/01:00am 5.4 2.5 1.3 75 1.6 N 6 7 3 4 1021.6 1021.5 0.0
18/12:30am 5.6 2.7 1.2 73 1.8 SSE 6 7 3 4 1021.3 1021.3 0.0
18/12:00am 6.2 3.1 1.3 71 2.0 S 7 7 4 4 1021.3 1021.3 0.0
 
Date/Time
EST
Temp
°C
App
Temp
°C
Dew
Point
°C
Rel
Hum
%
Delta-T
°C
Wind Press
QNH
hPa
Press
MSL
hPa
Rain since
9am
mm
Dir  Spd
km/h
Gust
km/h
Spd
kts
Gust
kts
17/11:30pm 6.6 3.5 1.3 69 2.2 S 7 9 4 5 1021.3 1021.3 0.0
17/11:00pm 7.2 4.3 1.3 66 2.4 SSE 6 7 3 4 1021.7 1021.6 0.0
17/10:30pm 8.5 5.6 1.6 62 2.9 SSE 6 7 3 4 1021.8 1021.7 0.0
17/10:00pm 9.5 5.7 1.9 59 3.2 S 11 11 6 6 1021.9 1021.8 0.0
17/09:30pm 9.9 6.5 1.8 57 3.5 SSE 9 11 5 6 1022.0 1021.9 0.0
17/09:00pm 10.5 6.7 1.9 55 3.7 S 11 13 6 7 1022.0 1021.9 0.0
17/08:30pm 11.0 7.2 1.8 53 4.0 SSE 11 13 6 7 1021.9 1021.8 0.0
17/08:00pm 11.7 8.3 1.6 50 4.3 SSE 9 9 5 5 1022.0 1021.9 0.0
17/07:30pm 12.3 8.5 1.6 48 4.6 S 11 11 6 6 1021.8 1021.7 0.0
17/07:00pm 12.8 9.4 1.8 47 4.8 S 9 11 5 6 1021.5 1021.4 0.0
17/06:30pm 13.8 10.0 1.8 44 5.3 S 11 13 6 7 1021.1 1021.1 0.0
17/06:00pm 14.5 11.0 1.4 41 5.8 SSW 9 11 5 6 1020.7 1020.6 0.0
17/05:30pm 15.9 12.0 1.2 37 6.5 S 11 15 6 8 1020.5 1020.4 0.0
17/05:00pm 17.4 13.0 0.6 32 7.4 S 13 17 7 9 1020.3 1020.2 0.0
17/04:30pm 17.8 13.0 0.0 30 7.8 SSE 15 22 8 12 1020.2 1020.1 0.0
17/04:00pm 18.2 13.4 -0.1 29 8.0 SSE 15 28 8 15 1020.0 1019.9 0.0
17/03:30pm 18.2 12.3 -0.6 28 8.2 S 20 32 11 17 1019.9 1019.8 0.0
17/03:00pm 18.2 12.5 -0.6 28 8.2 S 19 32 10 17 1020.0 1019.9 0.0
17/02:30pm 17.6 12.4 -0.2 30 7.8 SSE 17 32 9 17 1020.0 1019.9 0.0
17/02:00pm 18.0 13.3 0.6 31 7.7 SSE 15 28 8 15 1020.2 1020.1 0.0
17/01:30pm 17.6 12.1 0.3 31 7.7 SSE 19 28 10 15 1020.6 1020.5 0.0
17/01:00pm 17.4 12.3 0.6 32 7.4 SE 17 28 9 15 1021.1 1021.1 0.0
17/12:30pm 16.8 11.0 0.0 32 7.3 SE 20 33 11 18 1021.8 1021.7 0.0
17/12:00pm 16.4 10.9 0.5 34 7.0 S 19 32 10 17 1022.2 1022.1 0.0
17/11:30am 16.0 10.4 1.0 36 6.6 SSE 20 32 11 17 1022.7 1022.6 0.0
17/11:00am 15.6 10.0 1.0 37 6.4 SE 20 26 11 14 1023.0 1022.9 0.0
17/10:30am 15.3 10.0 2.1 41 5.9 SE 19 28 10 15 1023.4 1023.3 0.0
17/10:00am 14.2 9.3 1.8 43 5.5 SE 17 22 9 12 1023.5 1023.4 0.0
17/09:30am 13.1 9.0 2.1 47 4.9 SSE 13 19 7 10 1023.5 1023.4 0.0
17/09:00am 11.3 7.6 2.3 54 3.9 SSE 11 13 6 7 1023.3 1023.2 0.0
17/08:30am 8.9 5.1 1.8 61 3.0 S 11 15 6 8 1023.1 1023.0 0.0
17/08:00am 6.6 3.7 1.7 71 2.0 S 6 11 3 6 1022.8 1022.7 0.0
17/07:30am 3.6 1.7 0.5 80 1.2 CALM 0 0 0 0 1022.5 1022.4 0.0
17/07:00am 2.4 0.4 -0.4 82 1.0 CALM 0 0 0 0 1022.2 1022.1 0.0
17/06:30am 2.7 0.7 -0.1 82 1.1 CALM 0 0 0 0 1021.8 1021.7 0.0
17/06:00am 3.0 -0.1 -0.1 80 1.2 S 6 7 3 4 1021.5 1021.4 0.0
17/05:30am 3.4 0.1 0.1 79 1.3 S 7 9 4 5 1021.3 1021.3 0.0
17/05:00am 3.7 0.6 0.4 79 1.3 S 6 7 3 4 1021.1 1021.1 0.0
17/04:30am 4.0 2.1 0.5 78 1.4 CALM 0 0 0 0 1020.9 1020.9 0.0
17/04:00am 4.7 2.8 0.7 75 1.6 CALM 0 0 0 0 1020.8 1020.8 0.0
17/03:30am 5.4 3.6 1.1 74 1.7 CALM 0 0 0 0 1020.8 1020.8 0.0
17/03:00am 5.9 3.0 1.4 73 1.8 S 6 7 3 4 1020.9 1020.9 0.0
17/02:30am 6.0 4.2 1.3 72 1.9 CALM 0 4 0 2 1021.1 1021.1 0.0
17/02:00am 6.6 4.1 1.3 69 2.2 S 4 7 2 4 1021.3 1021.3 0.0
17/01:30am 7.3 4.2 1.4 66 2.4 S 7 7 4 4 1021.3 1021.3 0.0
17/01:00am 7.7 4.8 1.3 64 2.6 S 6 7 3 4 1021.5 1021.4 0.0
17/12:30am 8.9 7.2 1.6 60 3.1 CALM 0 0 0 0 1021.7 1021.6 0.0
17/12:00am 10.3 8.6 1.7 55 3.7 CALM 0 6 0 3 1021.7 1021.6 0.0
 
Date/Time
EST
Temp
°C
App
Temp
°C
Dew
Point
°C
Rel
Hum
%
Delta-T
°C
Wind Press
QNH
hPa
Press
MSL
hPa
Rain since
9am
mm
Dir  Spd
km/h
Gust
km/h
Spd
kts
Gust
kts
16/11:30pm 11.1 6.9 1.9 53 4.0 S 13 13 7 7 1021.5 1021.4 0.0
16/11:00pm 12.1 8.0 2.0 50 4.4 S 13 15 7 8 1021.5 1021.4 0.0
16/10:30pm 12.7 8.9 2.0 48 4.7 SSE 11 13 6 7 1021.6 1021.5 0.0
16/10:00pm 13.4 9.7 2.3 47 4.9 S 11 13 6 7 1021.6 1021.5 0.0
16/09:30pm 13.8 9.7 2.1 45 5.2 S 13 17 7 9 1021.3 1021.3 0.0
16/09:00pm 14.9 10.4 2.4 43 5.6 S 15 19 8 10 1021.2 1021.2 0.0
16/08:30pm 15.5 10.7 2.7 42 5.9 S 17 30 9 16 1021.0 1021.0 0.0
16/08:00pm 16.2 10.5 2.9 41 6.1 S 22 28 12 15 1020.4 1020.3 0.0
16/07:30pm 16.9 12.2 2.9 39 6.5 S 17 24 9 13 1020.1 1020.0 0.0
16/07:00pm 17.2 13.3 3.5 40 6.4 SSW 13 19 7 10 1019.8 1019.7 0.0
16/06:30pm 17.4 13.9 3.7 40 6.5 SSW 11 17 6 9 1019.4 1019.3 0.0
16/06:00pm 18.1 14.7 3.9 39 6.8 SSW 11 19 6 10 1019.0 1018.9 0.0
16/05:30pm 18.4 15.0 3.8 38 7.0 SSW 11 19 6 10 1018.6 1018.5 0.0
16/05:00pm 19.3 15.4 3.5 35 7.5 SSW 13 22 7 12 1018.3 1018.2 0.0
16/04:30pm 20.3 16.0 3.5 33 8.1 S 15 20 8 11 1017.9 1017.8 0.0

Other formats

Comma delimited format used in spreadsheet applications
http://www.bom.gov.au/fwo/IDQ60801/IDQ60801.94510.axf

JavaScript Object Notation format (JSON) in row-major order
http://www.bom.gov.au/fwo/IDQ60801/IDQ60801.94510.json

Data quality

Most of these data are generated automatically and are frequently updated. Quality checks on data are not normally performed. It is possible for incorrect values to appear. Refer to information at About Latest Weather Observations and please check the disclaimer before using these data.